sensor_id;sensor_type;location;lat;lon;timestamp;temperature;humidity
3198;DHT22;1611;49.394;11.136;2022-07-04T00:02:06;20.30;43.10
3198;DHT22;1611;49.394;11.136;2022-07-04T00:04:34;20.30;42.60
3198;DHT22;1611;49.394;11.136;2022-07-04T00:07:01;20.30;42.10
3198;DHT22;1611;49.394;11.136;2022-07-04T00:09:28;20.20;42.20
3198;DHT22;1611;49.394;11.136;2022-07-04T00:11:54;20.10;42.30
3198;DHT22;1611;49.394;11.136;2022-07-04T00:14:21;20.10;42.50
3198;DHT22;1611;49.394;11.136;2022-07-04T00:16:48;20.00;42.90
3198;DHT22;1611;49.394;11.136;2022-07-04T00:19:14;20.00;43.30
3198;DHT22;1611;49.394;11.136;2022-07-04T00:21:42;19.90;43.60
3198;DHT22;1611;49.394;11.136;2022-07-04T00:24:09;19.90;43.60
3198;DHT22;1611;49.394;11.136;2022-07-04T00:26:36;19.90;43.80
3198;DHT22;1611;49.394;11.136;2022-07-04T00:29:03;19.90;44.40
3198;DHT22;1611;49.394;11.136;2022-07-04T00:31:30;19.90;44.80
3198;DHT22;1611;49.394;11.136;2022-07-04T00:33:56;19.80;44.70
3198;DHT22;1611;49.394;11.136;2022-07-04T00:36:23;19.90;44.70
3198;DHT22;1611;49.394;11.136;2022-07-04T00:38:51;19.90;44.70
3198;DHT22;1611;49.394;11.136;2022-07-04T00:41:18;19.90;44.60
3198;DHT22;1611;49.394;11.136;2022-07-04T00:43:59;19.90;44.30
3198;DHT22;1611;49.394;11.136;2022-07-04T00:46:26;19.90;44.00
3198;DHT22;1611;49.394;11.136;2022-07-04T00:48:53;19.90;44.30
3198;DHT22;1611;49.394;11.136;2022-07-04T00:51:20;19.90;44.20
3198;DHT22;1611;49.394;11.136;2022-07-04T00:53:47;19.90;44.10
3198;DHT22;1611;49.394;11.136;2022-07-04T00:56:15;19.80;44.30
3198;DHT22;1611;49.394;11.136;2022-07-04T00:58:42;19.80;44.60
3198;DHT22;1611;49.394;11.136;2022-07-04T01:01:09;19.80;44.30
3198;DHT22;1611;49.394;11.136;2022-07-04T01:03:35;19.70;44.60
3198;DHT22;1611;49.394;11.136;2022-07-04T01:06:03;19.60;45.40
3198;DHT22;1611;49.394;11.136;2022-07-04T01:08:29;19.60;45.90
3198;DHT22;1611;49.394;11.136;2022-07-04T01:10:56;19.50;46.10
3198;DHT22;1611;49.394;11.136;2022-07-04T01:13:24;19.50;45.60
3198;DHT22;1611;49.394;11.136;2022-07-04T01:15:51;19.50;45.30
3198;DHT22;1611;49.394;11.136;2022-07-04T01:18:18;19.40;45.60
3198;DHT22;1611;49.394;11.136;2022-07-04T01:20:46;19.40;45.60
3198;DHT22;1611;49.394;11.136;2022-07-04T01:23:13;19.30;46.70
3198;DHT22;1611;49.394;11.136;2022-07-04T01:25:39;19.30;46.10
3198;DHT22;1611;49.394;11.136;2022-07-04T01:28:06;19.30;46.70
3198;DHT22;1611;49.394;11.136;2022-07-04T01:30:34;19.30;46.80
3198;DHT22;1611;49.394;11.136;2022-07-04T01:33:01;19.30;46.50
3198;DHT22;1611;49.394;11.136;2022-07-04T01:35:28;19.30;46.30
3198;DHT22;1611;49.394;11.136;2022-07-04T01:37:57;19.30;45.90
3198;DHT22;1611;49.394;11.136;2022-07-04T01:40:23;19.30;45.80
3198;DHT22;1611;49.394;11.136;2022-07-04T01:42:50;19.20;45.90
3198;DHT22;1611;49.394;11.136;2022-07-04T01:45:17;19.10;46.30
3198;DHT22;1611;49.394;11.136;2022-07-04T01:47:44;19.00;45.90
3198;DHT22;1611;49.394;11.136;2022-07-04T01:50:11;19.00;46.60
3198;DHT22;1611;49.394;11.136;2022-07-04T01:52:38;19.00;47.50
3198;DHT22;1611;49.394;11.136;2022-07-04T01:55:08;19.00;47.40
3198;DHT22;1611;49.394;11.136;2022-07-04T01:57:35;19.00;47.20
3198;DHT22;1611;49.394;11.136;2022-07-04T02:00:02;19.00;47.30
3198;DHT22;1611;49.394;11.136;2022-07-04T02:02:47;18.90;47.60
3198;DHT22;1611;49.394;11.136;2022-07-04T02:05:13;18.80;47.40
3198;DHT22;1611;49.394;11.136;2022-07-04T02:07:40;18.80;47.50
3198;DHT22;1611;49.394;11.136;2022-07-04T02:10:09;18.80;47.80
3198;DHT22;1611;49.394;11.136;2022-07-04T02:12:36;18.70;47.40
3198;DHT22;1611;49.394;11.136;2022-07-04T02:15:20;18.70;48.00
3198;DHT22;1611;49.394;11.136;2022-07-04T02:17:47;18.60;48.40
3198;DHT22;1611;49.394;11.136;2022-07-04T02:20:14;18.70;47.90
3198;DHT22;1611;49.394;11.136;2022-07-04T02:22:40;18.70;48.30
3198;DHT22;1611;49.394;11.136;2022-07-04T02:25:09;18.70;48.60
3198;DHT22;1611;49.394;11.136;2022-07-04T02:27:37;18.70;48.80
3198;DHT22;1611;49.394;11.136;2022-07-04T02:30:05;18.70;48.40
3198;DHT22;1611;49.394;11.136;2022-07-04T02:32:32;18.70;48.30
3198;DHT22;1611;49.394;11.136;2022-07-04T02:34:59;18.70;49.00
3198;DHT22;1611;49.394;11.136;2022-07-04T02:37:26;18.60;49.10
3198;DHT22;1611;49.394;11.136;2022-07-04T02:39:52;18.70;48.90
3198;DHT22;1611;49.394;11.136;2022-07-04T02:42:20;18.60;49.10
3198;DHT22;1611;49.394;11.136;2022-07-04T02:44:47;18.50;49.90
3198;DHT22;1611;49.394;11.136;2022-07-04T02:47:14;18.40;49.70
3198;DHT22;1611;49.394;11.136;2022-07-04T02:49:41;18.40;49.80
3198;DHT22;1611;49.394;11.136;2022-07-04T02:52:08;18.50;48.90
3198;DHT22;1611;49.394;11.136;2022-07-04T02:54:34;18.50;49.00
3198;DHT22;1611;49.394;11.136;2022-07-04T02:57:01;18.50;49.50
3198;DHT22;1611;49.394;11.136;2022-07-04T02:59:29;18.50;49.60
3198;DHT22;1611;49.394;11.136;2022-07-04T03:01:56;18.40;49.70
3198;DHT22;1611;49.394;11.136;2022-07-04T03:04:23;18.40;49.70
3198;DHT22;1611;49.394;11.136;2022-07-04T03:06:49;18.40;49.40
3198;DHT22;1611;49.394;11.136;2022-07-04T03:09:16;18.50;49.70
3198;DHT22;1611;49.394;11.136;2022-07-04T03:11:43;18.60;49.00
3198;DHT22;1611;49.394;11.136;2022-07-04T03:14:10;18.60;49.10
3198;DHT22;1611;49.394;11.136;2022-07-04T03:16:38;18.60;49.10
3198;DHT22;1611;49.394;11.136;2022-07-04T03:19:05;18.60;49.20
3198;DHT22;1611;49.394;11.136;2022-07-04T03:21:32;18.60;49.10
3198;DHT22;1611;49.394;11.136;2022-07-04T03:23:58;18.60;49.20
3198;DHT22;1611;49.394;11.136;2022-07-04T03:26:26;18.60;49.20
3198;DHT22;1611;49.394;11.136;2022-07-04T03:28:53;18.60;49.40
3198;DHT22;1611;49.394;11.136;2022-07-04T03:31:20;18.60;49.40
3198;DHT22;1611;49.394;11.136;2022-07-04T03:33:48;18.60;49.40
3198;DHT22;1611;49.394;11.136;2022-07-04T03:36:15;18.60;49.40
3198;DHT22;1611;49.394;11.136;2022-07-04T03:38:41;18.60;49.60
3198;DHT22;1611;49.394;11.136;2022-07-04T03:41:08;18.50;49.70
3198;DHT22;1611;49.394;11.136;2022-07-04T03:43:35;18.60;49.90
3198;DHT22;1611;49.394;11.136;2022-07-04T03:46:02;18.60;49.70
3198;DHT22;1611;49.394;11.136;2022-07-04T03:48:29;18.60;49.80
3198;DHT22;1611;49.394;11.136;2022-07-04T03:50:57;18.60;49.90
3198;DHT22;1611;49.394;11.136;2022-07-04T03:53:24;18.60;50.20
3198;DHT22;1611;49.394;11.136;2022-07-04T03:55:50;18.60;50.40
3198;DHT22;1611;49.394;11.136;2022-07-04T03:58:17;18.60;50.70
3198;DHT22;1611;49.394;11.136;2022-07-04T04:00:44;18.70;50.90
3198;DHT22;1611;49.394;11.136;2022-07-04T04:03:11;18.80;51.00
3198;DHT22;1611;49.394;11.136;2022-07-04T04:05:52;18.80;51.00
3198;DHT22;1611;49.394;11.136;2022-07-04T04:08:20;18.90;51.10
3198;DHT22;1611;49.394;11.136;2022-07-04T04:10:47;19.00;51.40
3198;DHT22;1611;49.394;11.136;2022-07-04T04:13:13;19.00;51.20
3198;DHT22;1611;49.394;11.136;2022-07-04T04:15:40;19.10;51.00
3198;DHT22;1611;49.394;11.136;2022-07-04T04:18:07;19.10;50.70
3198;DHT22;1611;49.394;11.136;2022-07-04T04:20:34;19.10;50.70
3198;DHT22;1611;49.394;11.136;2022-07-04T04:23:01;19.20;50.40
3198;DHT22;1611;49.394;11.136;2022-07-04T04:25:29;19.30;50.10
3198;DHT22;1611;49.394;11.136;2022-07-04T04:27:55;19.40;48.80
3198;DHT22;1611;49.394;11.136;2022-07-04T04:30:22;19.50;48.10
3198;DHT22;1611;49.394;11.136;2022-07-04T04:32:49;19.60;47.60
3198;DHT22;1611;49.394;11.136;2022-07-04T04:35:16;19.70;47.50
3198;DHT22;1611;49.394;11.136;2022-07-04T04:37:43;19.70;47.60
3198;DHT22;1611;49.394;11.136;2022-07-04T04:40:11;19.80;48.00
3198;DHT22;1611;49.394;11.136;2022-07-04T04:42:40;19.80;48.10
3198;DHT22;1611;49.394;11.136;2022-07-04T04:45:07;19.90;48.60
3198;DHT22;1611;49.394;11.136;2022-07-04T04:47:34;19.90;48.50
3198;DHT22;1611;49.394;11.136;2022-07-04T04:50:00;20.00;47.50
3198;DHT22;1611;49.394;11.136;2022-07-04T04:52:27;20.00;46.30
3198;DHT22;1611;49.394;11.136;2022-07-04T04:54:54;20.00;46.70
3198;DHT22;1611;49.394;11.136;2022-07-04T04:57:20;20.10;46.80
3198;DHT22;1611;49.394;11.136;2022-07-04T04:59:49;20.10;46.40
3198;DHT22;1611;49.394;11.136;2022-07-04T05:02:15;20.20;45.40
3198;DHT22;1611;49.394;11.136;2022-07-04T05:04:42;20.20;45.60
3198;DHT22;1611;49.394;11.136;2022-07-04T05:07:09;20.30;45.30
3198;DHT22;1611;49.394;11.136;2022-07-04T05:09:35;20.30;45.10
3198;DHT22;1611;49.394;11.136;2022-07-04T05:12:03;20.30;46.00
3198;DHT22;1611;49.394;11.136;2022-07-04T05:14:30;20.30;46.50
3198;DHT22;1611;49.394;11.136;2022-07-04T05:16:58;20.30;46.60
3198;DHT22;1611;49.394;11.136;2022-07-04T05:19:24;20.30;46.30
3198;DHT22;1611;49.394;11.136;2022-07-04T05:21:51;20.40;47.00
3198;DHT22;1611;49.394;11.136;2022-07-04T05:24:18;20.40;46.20
3198;DHT22;1611;49.394;11.136;2022-07-04T05:26:45;20.40;44.10
3198;DHT22;1611;49.394;11.136;2022-07-04T05:29:12;20.40;39.40
3198;DHT22;1611;49.394;11.136;2022-07-04T05:31:39;20.40;40.70
3198;DHT22;1611;49.394;11.136;2022-07-04T05:34:07;20.50;40.00
3198;DHT22;1611;49.394;11.136;2022-07-04T05:36:33;20.60;40.30
3198;DHT22;1611;49.394;11.136;2022-07-04T05:39:00;20.60;41.00
3198;DHT22;1611;49.394;11.136;2022-07-04T05:41:27;20.80;40.60
3198;DHT22;1611;49.394;11.136;2022-07-04T05:43:54;20.80;40.80
3198;DHT22;1611;49.394;11.136;2022-07-04T05:46:21;20.90;41.40
3198;DHT22;1611;49.394;11.136;2022-07-04T05:48:47;20.90;39.00
3198;DHT22;1611;49.394;11.136;2022-07-04T05:51:15;20.90;37.60
3198;DHT22;1611;49.394;11.136;2022-07-04T05:53:42;20.90;38.60
3198;DHT22;1611;49.394;11.136;2022-07-04T05:56:09;21.00;39.30
3198;DHT22;1611;49.394;11.136;2022-07-04T05:58:36;20.90;37.90
3198;DHT22;1611;49.394;11.136;2022-07-04T06:01:03;20.90;37.60
3198;DHT22;1611;49.394;11.136;2022-07-04T06:03:30;20.80;37.10
3198;DHT22;1611;49.394;11.136;2022-07-04T06:05:56;20.80;37.70
3198;DHT22;1611;49.394;11.136;2022-07-04T06:08:25;20.80;38.60
3198;DHT22;1611;49.394;11.136;2022-07-04T06:10:52;20.80;38.80
3198;DHT22;1611;49.394;11.136;2022-07-04T06:13:18;20.80;38.00
3198;DHT22;1611;49.394;11.136;2022-07-04T06:15:45;20.90;38.80
3198;DHT22;1611;49.394;11.136;2022-07-04T06:18:12;21.00;37.50
3198;DHT22;1611;49.394;11.136;2022-07-04T06:20:39;21.10;37.80
3198;DHT22;1611;49.394;11.136;2022-07-04T06:23:06;21.30;37.30
3198;DHT22;1611;49.394;11.136;2022-07-04T06:25:34;21.30;36.70
3198;DHT22;1611;49.394;11.136;2022-07-04T06:28:02;21.30;36.50
3198;DHT22;1611;49.394;11.136;2022-07-04T06:30:29;21.30;36.60
3198;DHT22;1611;49.394;11.136;2022-07-04T06:32:56;21.20;36.80
3198;DHT22;1611;49.394;11.136;2022-07-04T06:35:26;21.10;37.30
3198;DHT22;1611;49.394;11.136;2022-07-04T06:38:11;21.00;37.50
3198;DHT22;1611;49.394;11.136;2022-07-04T06:40:39;21.00;37.50
3198;DHT22;1611;49.394;11.136;2022-07-04T06:43:06;21.10;37.70
3198;DHT22;1611;49.394;11.136;2022-07-04T06:45:34;21.20;37.90
3198;DHT22;1611;49.394;11.136;2022-07-04T06:48:01;21.20;37.00
3198;DHT22;1611;49.394;11.136;2022-07-04T06:50:28;21.20;36.20
3198;DHT22;1611;49.394;11.136;2022-07-04T06:52:58;21.30;37.60
3198;DHT22;1611;49.394;11.136;2022-07-04T06:55:24;21.40;36.80
3198;DHT22;1611;49.394;11.136;2022-07-04T06:57:52;21.40;36.80
3198;DHT22;1611;49.394;11.136;2022-07-04T07:00:19;21.60;36.70
3198;DHT22;1611;49.394;11.136;2022-07-04T07:02:46;21.70;36.10
3198;DHT22;1611;49.394;11.136;2022-07-04T07:05:13;21.90;36.80
3198;DHT22;1611;49.394;11.136;2022-07-04T07:07:39;22.20;35.90
3198;DHT22;1611;49.394;11.136;2022-07-04T07:10:07;22.40;34.40
3198;DHT22;1611;49.394;11.136;2022-07-04T07:12:34;22.60;34.20
3198;DHT22;1611;49.394;11.136;2022-07-04T07:15:03;22.80;33.00
3198;DHT22;1611;49.394;11.136;2022-07-04T07:17:30;22.90;33.50
3198;DHT22;1611;49.394;11.136;2022-07-04T07:19:56;23.20;32.90
3198;DHT22;1611;49.394;11.136;2022-07-04T07:22:23;23.40;32.30
3198;DHT22;1611;49.394;11.136;2022-07-04T07:24:50;23.50;31.90
3198;DHT22;1611;49.394;11.136;2022-07-04T07:27:17;23.80;32.70
3198;DHT22;1611;49.394;11.136;2022-07-04T07:29:44;23.90;30.00
3198;DHT22;1611;49.394;11.136;2022-07-04T07:32:12;23.90;30.60
3198;DHT22;1611;49.394;11.136;2022-07-04T07:34:39;23.90;30.20
3198;DHT22;1611;49.394;11.136;2022-07-04T07:37:06;24.00;31.50
3198;DHT22;1611;49.394;11.136;2022-07-04T07:39:33;24.00;31.30
3198;DHT22;1611;49.394;11.136;2022-07-04T07:42:00;24.20;31.80
3198;DHT22;1611;49.394;11.136;2022-07-04T07:44:27;24.30;29.90
3198;DHT22;1611;49.394;11.136;2022-07-04T07:46:54;24.30;30.40
3198;DHT22;1611;49.394;11.136;2022-07-04T07:49:22;24.30;31.20
3198;DHT22;1611;49.394;11.136;2022-07-04T07:51:49;24.20;30.00
3198;DHT22;1611;49.394;11.136;2022-07-04T07:54:16;24.20;31.00
3198;DHT22;1611;49.394;11.136;2022-07-04T07:56:43;23.90;30.00
3198;DHT22;1611;49.394;11.136;2022-07-04T07:59:10;24.00;30.60
3198;DHT22;1611;49.394;11.136;2022-07-04T08:01:36;24.10;31.00
3198;DHT22;1611;49.394;11.136;2022-07-04T08:04:03;24.20;31.00
3198;DHT22;1611;49.394;11.136;2022-07-04T08:06:49;24.30;30.40
3198;DHT22;1611;49.394;11.136;2022-07-04T08:09:16;24.50;30.10
3198;DHT22;1611;49.394;11.136;2022-07-04T08:11:43;24.50;29.70
3198;DHT22;1611;49.394;11.136;2022-07-04T08:14:09;24.50;30.10
3198;DHT22;1611;49.394;11.136;2022-07-04T08:16:36;24.60;29.70
3198;DHT22;1611;49.394;11.136;2022-07-04T08:19:03;24.70;30.50
3198;DHT22;1611;49.394;11.136;2022-07-04T08:21:30;24.90;30.00
3198;DHT22;1611;49.394;11.136;2022-07-04T08:23:58;25.20;28.80
3198;DHT22;1611;49.394;11.136;2022-07-04T08:26:25;25.10;28.50
3198;DHT22;1611;49.394;11.136;2022-07-04T08:28:52;25.10;28.80
3198;DHT22;1611;49.394;11.136;2022-07-04T08:31:22;25.00;28.40
3198;DHT22;1611;49.394;11.136;2022-07-04T08:33:49;25.10;29.60
3198;DHT22;1611;49.394;11.136;2022-07-04T08:36:16;25.10;28.70
3198;DHT22;1611;49.394;11.136;2022-07-04T08:38:43;25.10;28.10
3198;DHT22;1611;49.394;11.136;2022-07-04T08:41:12;25.40;27.60
3198;DHT22;1611;49.394;11.136;2022-07-04T08:43:42;25.70;27.80
3198;DHT22;1611;49.394;11.136;2022-07-04T08:46:09;25.80;26.90
3198;DHT22;1611;49.394;11.136;2022-07-04T08:48:38;25.70;26.10
3198;DHT22;1611;49.394;11.136;2022-07-04T08:51:12;25.60;26.90
3198;DHT22;1611;49.394;11.136;2022-07-04T08:53:48;25.80;26.70
3198;DHT22;1611;49.394;11.136;2022-07-04T08:56:18;26.00;28.20
3198;DHT22;1611;49.394;11.136;2022-07-04T08:59:03;25.90;25.00
3198;DHT22;1611;49.394;11.136;2022-07-04T09:01:30;26.20;26.40
3198;DHT22;1611;49.394;11.136;2022-07-04T09:03:58;26.20;26.20
3198;DHT22;1611;49.394;11.136;2022-07-04T09:06:26;26.30;25.50
3198;DHT22;1611;49.394;11.136;2022-07-04T09:08:55;26.50;25.00
3198;DHT22;1611;49.394;11.136;2022-07-04T09:11:23;26.60;25.10
3198;DHT22;1611;49.394;11.136;2022-07-04T09:13:50;26.60;24.70
3198;DHT22;1611;49.394;11.136;2022-07-04T09:16:17;26.60;24.10
3198;DHT22;1611;49.394;11.136;2022-07-04T09:18:43;26.60;25.70
3198;DHT22;1611;49.394;11.136;2022-07-04T09:21:10;26.70;25.20
3198;DHT22;1611;49.394;11.136;2022-07-04T09:23:40;27.00;25.90
3198;DHT22;1611;49.394;11.136;2022-07-04T09:26:09;27.20;23.70
3198;DHT22;1611;49.394;11.136;2022-07-04T09:28:39;27.40;24.10
3198;DHT22;1611;49.394;11.136;2022-07-04T09:31:14;27.30;24.60
3198;DHT22;1611;49.394;11.136;2022-07-04T09:33:46;27.20;23.30
3198;DHT22;1611;49.394;11.136;2022-07-04T09:36:16;27.20;23.10
3198;DHT22;1611;49.394;11.136;2022-07-04T09:38:43;27.00;23.30
3198;DHT22;1611;49.394;11.136;2022-07-04T09:41:10;26.90;23.70
3198;DHT22;1611;49.394;11.136;2022-07-04T09:44:01;27.20;25.00
3198;DHT22;1611;49.394;11.136;2022-07-04T09:46:29;27.30;22.60
3198;DHT22;1611;49.394;11.136;2022-07-04T09:48:56;27.50;23.70
3198;DHT22;1611;49.394;11.136;2022-07-04T09:51:36;27.70;22.10
3198;DHT22;1611;49.394;11.136;2022-07-04T09:54:18;27.40;22.10
3198;DHT22;1611;49.394;11.136;2022-07-04T09:56:47;27.10;22.10
3198;DHT22;1611;49.394;11.136;2022-07-04T09:59:15;27.10;23.50
3198;DHT22;1611;49.394;11.136;2022-07-04T10:01:42;27.40;22.70
3198;DHT22;1611;49.394;11.136;2022-07-04T10:04:09;27.80;23.30
3198;DHT22;1611;49.394;11.136;2022-07-04T10:06:38;28.20;22.40
3198;DHT22;1611;49.394;11.136;2022-07-04T10:09:11;28.40;19.80
3198;DHT22;1611;49.394;11.136;2022-07-04T10:11:38;28.40;20.90
3198;DHT22;1611;49.394;11.136;2022-07-04T10:14:07;28.30;19.50
3198;DHT22;1611;49.394;11.136;2022-07-04T10:16:36;28.50;19.70
3198;DHT22;1611;49.394;11.136;2022-07-04T10:19:04;28.60;20.10
3198;DHT22;1611;49.394;11.136;2022-07-04T10:21:31;28.50;20.10
3198;DHT22;1611;49.394;11.136;2022-07-04T10:23:58;28.50;20.90
3198;DHT22;1611;49.394;11.136;2022-07-04T10:26:27;28.50;19.70
3198;DHT22;1611;49.394;11.136;2022-07-04T10:28:54;28.40;19.60
3198;DHT22;1611;49.394;11.136;2022-07-04T10:31:25;28.40;19.60
3198;DHT22;1611;49.394;11.136;2022-07-04T10:33:55;28.40;20.60
3198;DHT22;1611;49.394;11.136;2022-07-04T10:36:24;28.40;19.70
3198;DHT22;1611;49.394;11.136;2022-07-04T10:38:55;28.40;20.70
3198;DHT22;1611;49.394;11.136;2022-07-04T10:41:24;28.50;19.60
3198;DHT22;1611;49.394;11.136;2022-07-04T10:43:53;29.00;20.70
3198;DHT22;1611;49.394;11.136;2022-07-04T10:46:43;29.50;20.40
3198;DHT22;1611;49.394;11.136;2022-07-04T10:49:30;29.80;18.30
3198;DHT22;1611;49.394;11.136;2022-07-04T10:52:08;29.70;17.50
3198;DHT22;1611;49.394;11.136;2022-07-04T10:54:36;29.70;17.40
3198;DHT22;1611;49.394;11.136;2022-07-04T10:57:12;29.40;15.30
3198;DHT22;1611;49.394;11.136;2022-07-04T10:59:41;29.30;16.50
3198;DHT22;1611;49.394;11.136;2022-07-04T11:02:27;29.40;18.10
3198;DHT22;1611;49.394;11.136;2022-07-04T11:05:03;29.00;18.40
3198;DHT22;1611;49.394;11.136;2022-07-04T11:07:56;28.90;17.90
3198;DHT22;1611;49.394;11.136;2022-07-04T11:10:23;29.10;19.80
3198;DHT22;1611;49.394;11.136;2022-07-04T11:13:21;29.20;18.80
3198;DHT22;1611;49.394;11.136;2022-07-04T11:16:02;29.50;18.00
3198;DHT22;1611;49.394;11.136;2022-07-04T11:18:34;29.80;19.00
3198;DHT22;1611;49.394;11.136;2022-07-04T11:21:20;29.90;17.80
3198;DHT22;1611;49.394;11.136;2022-07-04T11:23:50;30.10;17.80
3198;DHT22;1611;49.394;11.136;2022-07-04T11:26:19;30.30;16.70
3198;DHT22;1611;49.394;11.136;2022-07-04T11:28:46;30.50;17.00
3198;DHT22;1611;49.394;11.136;2022-07-04T11:31:13;30.50;16.60
3198;DHT22;1611;49.394;11.136;2022-07-04T11:33:41;30.70;16.30
3198;DHT22;1611;49.394;11.136;2022-07-04T11:36:10;31.00;16.40
3198;DHT22;1611;49.394;11.136;2022-07-04T11:38:56;31.40;15.00
3198;DHT22;1611;49.394;11.136;2022-07-04T11:41:25;32.00;14.90
3198;DHT22;1611;49.394;11.136;2022-07-04T11:44:12;33.00;12.90
3198;DHT22;1611;49.394;11.136;2022-07-04T11:47:09;34.00;12.00
3198;DHT22;1611;49.394;11.136;2022-07-04T11:49:39;35.60;9.50
3198;DHT22;1611;49.394;11.136;2022-07-04T11:52:07;36.70;8.30
3198;DHT22;1611;49.394;11.136;2022-07-04T11:54:35;37.60;8.80
3198;DHT22;1611;49.394;11.136;2022-07-04T11:57:13;38.30;7.80
3198;DHT22;1611;49.394;11.136;2022-07-04T11:59:41;39.40;6.30
3198;DHT22;1611;49.394;11.136;2022-07-04T12:02:12;40.00;5.30
3198;DHT22;1611;49.394;11.136;2022-07-04T12:04:39;39.70;5.50
3198;DHT22;1611;49.394;11.136;2022-07-04T12:07:12;39.90;5.10
3198;DHT22;1611;49.394;11.136;2022-07-04T12:09:41;40.40;5.10
3198;DHT22;1611;49.394;11.136;2022-07-04T12:12:09;41.00;4.60
3198;DHT22;1611;49.394;11.136;2022-07-04T12:14:37;41.80;4.50
3198;DHT22;1611;49.394;11.136;2022-07-04T12:17:15;42.70;4.00
3198;DHT22;1611;49.394;11.136;2022-07-04T12:19:55;43.10;3.20
3198;DHT22;1611;49.394;11.136;2022-07-04T12:22:26;42.70;2.70
3198;DHT22;1611;49.394;11.136;2022-07-04T12:24:54;42.00;3.20
3198;DHT22;1611;49.394;11.136;2022-07-04T12:27:21;40.90;4.60
3198;DHT22;1611;49.394;11.136;2022-07-04T12:29:50;40.40;5.10
3198;DHT22;1611;49.394;11.136;2022-07-04T12:32:17;40.40;4.90
3198;DHT22;1611;49.394;11.136;2022-07-04T12:34:44;40.60;4.80
3198;DHT22;1611;49.394;11.136;2022-07-04T12:37:12;41.00;5.90
3198;DHT22;1611;49.394;11.136;2022-07-04T12:39:41;41.90;4.70
3198;DHT22;1611;49.394;11.136;2022-07-04T12:42:13;42.70;3.80
3198;DHT22;1611;49.394;11.136;2022-07-04T12:44:40;43.70;2.90
3198;DHT22;1611;49.394;11.136;2022-07-04T12:47:08;44.50;1.70
3198;DHT22;1611;49.394;11.136;2022-07-04T12:49:35;45.00;2.30
3198;DHT22;1611;49.394;11.136;2022-07-04T12:52:07;45.30;1.50
3198;DHT22;1611;49.394;11.136;2022-07-04T12:54:35;44.30;1.90
3198;DHT22;1611;49.394;11.136;2022-07-04T12:57:10;44.50;1.70
3198;DHT22;1611;49.394;11.136;2022-07-04T12:59:37;45.50;1.60
3198;DHT22;1611;49.394;11.136;2022-07-04T13:02:04;46.00;1.00
3198;DHT22;1611;49.394;11.136;2022-07-04T13:04:32;45.80;1.00
3198;DHT22;1611;49.394;11.136;2022-07-04T13:07:00;44.20;1.50
3198;DHT22;1611;49.394;11.136;2022-07-04T13:09:37;42.10;3.70
3198;DHT22;1611;49.394;11.136;2022-07-04T13:12:04;40.10;5.60
3198;DHT22;1611;49.394;11.136;2022-07-04T13:14:50;40.20;5.20
3198;DHT22;1611;49.394;11.136;2022-07-04T13:17:17;40.20;4.80
3198;DHT22;1611;49.394;11.136;2022-07-04T13:19:44;38.50;6.10
3198;DHT22;1611;49.394;11.136;2022-07-04T13:22:11;37.20;7.70
3198;DHT22;1611;49.394;11.136;2022-07-04T13:24:37;38.40;6.50
3198;DHT22;1611;49.394;11.136;2022-07-04T13:27:05;39.90;4.90
3198;DHT22;1611;49.394;11.136;2022-07-04T13:29:32;41.50;3.80
3198;DHT22;1611;49.394;11.136;2022-07-04T13:32:00;43.30;2.70
3198;DHT22;1611;49.394;11.136;2022-07-04T13:34:27;44.30;1.70
3198;DHT22;1611;49.394;11.136;2022-07-04T13:36:53;43.80;1.40
3198;DHT22;1611;49.394;11.136;2022-07-04T13:39:21;42.80;2.80
3198;DHT22;1611;49.394;11.136;2022-07-04T13:41:48;42.70;2.80
3198;DHT22;1611;49.394;11.136;2022-07-04T13:44:15;43.30;3.00
3198;DHT22;1611;49.394;11.136;2022-07-04T13:46:42;45.00;1.30
3198;DHT22;1611;49.394;11.136;2022-07-04T13:49:11;45.10;1.00
3198;DHT22;1611;49.394;11.136;2022-07-04T13:51:38;45.70;1.00
3198;DHT22;1611;49.394;11.136;2022-07-04T13:54:06;45.20;1.00
3198;DHT22;1611;49.394;11.136;2022-07-04T13:56:33;45.30;1.00
3198;DHT22;1611;49.394;11.136;2022-07-04T13:59:00;45.30;1.00
3198;DHT22;1611;49.394;11.136;2022-07-04T14:01:27;45.10;1.00
3198;DHT22;1611;49.394;11.136;2022-07-04T14:03:54;45.80;1.00
3198;DHT22;1611;49.394;11.136;2022-07-04T14:06:22;46.60;1.00
3198;DHT22;1611;49.394;11.136;2022-07-04T14:08:49;45.70;1.00
3198;DHT22;1611;49.394;11.136;2022-07-04T14:11:16;44.10;1.00
3198;DHT22;1611;49.394;11.136;2022-07-04T14:13:43;43.40;1.80
3198;DHT22;1611;49.394;11.136;2022-07-04T14:16:09;44.20;1.40
3198;DHT22;1611;49.394;11.136;2022-07-04T14:18:36;45.00;1.10
3198;DHT22;1611;49.394;11.136;2022-07-04T14:21:03;46.50;1.00
3198;DHT22;1611;49.394;11.136;2022-07-04T14:23:31;46.00;1.00
3198;DHT22;1611;49.394;11.136;2022-07-04T14:26:08;44.50;1.00
3198;DHT22;1611;49.394;11.136;2022-07-04T14:28:35;44.00;1.00
3198;DHT22;1611;49.394;11.136;2022-07-04T14:31:02;44.10;1.00
3198;DHT22;1611;49.394;11.136;2022-07-04T14:33:29;44.90;1.00
3198;DHT22;1611;49.394;11.136;2022-07-04T14:35:55;45.70;1.00
3198;DHT22;1611;49.394;11.136;2022-07-04T14:38:22;47.10;1.00
3198;DHT22;1611;49.394;11.136;2022-07-04T14:40:50;47.80;1.00
3198;DHT22;1611;49.394;11.136;2022-07-04T14:43:17;47.60;1.00
3198;DHT22;1611;49.394;11.136;2022-07-04T14:45:44;47.80;1.00
3198;DHT22;1611;49.394;11.136;2022-07-04T14:48:12;46.10;1.00
3198;DHT22;1611;49.394;11.136;2022-07-04T14:50:39;44.00;1.00
3198;DHT22;1611;49.394;11.136;2022-07-04T14:53:05;41.50;1.40
3198;DHT22;1611;49.394;11.136;2022-07-04T14:55:32;39.40;2.20
3198;DHT22;1611;49.394;11.136;2022-07-04T14:58:00;37.80;4.60
3198;DHT22;1611;49.394;11.136;2022-07-04T15:00:27;36.50;6.20
3198;DHT22;1611;49.394;11.136;2022-07-04T15:02:54;36.40;6.20
3198;DHT22;1611;49.394;11.136;2022-07-04T15:05:20;36.30;6.90
3198;DHT22;1611;49.394;11.136;2022-07-04T15:07:47;35.80;6.40
3198;DHT22;1611;49.394;11.136;2022-07-04T15:10:14;35.20;8.20
3198;DHT22;1611;49.394;11.136;2022-07-04T15:12:41;34.40;7.80
3198;DHT22;1611;49.394;11.136;2022-07-04T15:15:10;34.10;8.20
3198;DHT22;1611;49.394;11.136;2022-07-04T15:17:37;33.70;8.20
3198;DHT22;1611;49.394;11.136;2022-07-04T15:20:05;33.10;9.60
3198;DHT22;1611;49.394;11.136;2022-07-04T15:22:49;32.50;9.50
3198;DHT22;1611;49.394;11.136;2022-07-04T15:25:33;32.00;11.00
3198;DHT22;1611;49.394;11.136;2022-07-04T15:27:59;31.60;11.90
3198;DHT22;1611;49.394;11.136;2022-07-04T15:30:28;31.20;11.80
3198;DHT22;1611;49.394;11.136;2022-07-04T15:32:54;31.00;11.80
3198;DHT22;1611;49.394;11.136;2022-07-04T15:35:21;30.60;12.10
3198;DHT22;1611;49.394;11.136;2022-07-04T15:37:48;30.50;12.10
3198;DHT22;1611;49.394;11.136;2022-07-04T15:40:15;30.80;12.80
3198;DHT22;1611;49.394;11.136;2022-07-04T15:42:41;31.10;11.70
3198;DHT22;1611;49.394;11.136;2022-07-04T15:45:09;31.20;10.90
3198;DHT22;1611;49.394;11.136;2022-07-04T15:47:37;31.20;11.40
3198;DHT22;1611;49.394;11.136;2022-07-04T15:50:05;31.20;12.10
3198;DHT22;1611;49.394;11.136;2022-07-04T15:52:31;31.00;12.10
3198;DHT22;1611;49.394;11.136;2022-07-04T15:54:58;30.60;10.90
3198;DHT22;1611;49.394;11.136;2022-07-04T15:57:25;30.40;12.10
3198;DHT22;1611;49.394;11.136;2022-07-04T15:59:52;30.30;12.60